sensor_id;sensor_type;location;lat;lon;timestamp;pressure;altitude;pressure_sealevel;temperature;humidity
6034;BME280;3045;43.226;27.858;2024-01-15T00:01:51;146520.59;;;1.83;100.00
6034;BME280;3045;43.226;27.858;2024-01-15T00:04:20;146534.41;;;1.89;100.00
6034;BME280;3045;43.226;27.858;2024-01-15T00:06:47;146540.66;;;1.91;100.00
6034;BME280;3045;43.226;27.858;2024-01-15T00:09:14;146569.56;;;2.03;100.00
6034;BME280;3045;43.226;27.858;2024-01-15T00:11:42;146568.28;;;2.02;100.00
6034;BME280;3045;43.226;27.858;2024-01-15T00:14:09;146592.16;;;2.12;100.00
6034;BME280;3045;43.226;27.858;2024-01-15T00:16:36;146604.66;;;2.17;100.00
6034;BME280;3045;43.226;27.858;2024-01-15T00:19:03;146629.78;;;2.27;100.00
6034;BME280;3045;43.226;27.858;2024-01-15T00:21:31;146641.09;;;2.32;100.00
6034;BME280;3045;43.226;27.858;2024-01-15T00:23:58;146642.34;;;2.32;100.00
6034;BME280;3045;43.226;27.858;2024-01-15T00:26:25;146639.81;;;2.31;100.00
6034;BME280;3045;43.226;27.858;2024-01-15T00:28:52;146597.16;;;2.14;100.00
6034;BME280;3045;43.226;27.858;2024-01-15T00:31:19;146631.06;;;2.27;100.00
6034;BME280;3045;43.226;27.858;2024-01-15T00:33:46;146587.13;;;2.10;100.00
6034;BME280;3045;43.226;27.858;2024-01-15T00:36:13;146531.88;;;1.88;100.00
6034;BME280;3045;43.226;27.858;2024-01-15T00:38:43;146495.53;;;1.73;100.00
6034;BME280;3045;43.226;27.858;2024-01-15T00:41:12;146504.28;;;1.76;100.00
6034;BME280;3045;43.226;27.858;2024-01-15T00:43:39;146494.25;;;1.72;100.00
6034;BME280;3045;43.226;27.858;2024-01-15T00:46:07;146480.44;;;1.67;100.00
6034;BME280;3045;43.226;27.858;2024-01-15T00:48:34;146479.19;;;1.66;100.00
6034;BME280;3045;43.226;27.858;2024-01-15T00:51:01;146487.97;;;1.70;100.00
6034;BME280;3045;43.226;27.858;2024-01-15T00:53:28;146484.22;;;1.68;100.00
6034;BME280;3045;43.226;27.858;2024-01-15T00:55:56;146466.63;;;1.61;100.00
6034;BME280;3045;43.226;27.858;2024-01-15T00:58:24;146481.72;;;1.67;100.00
6034;BME280;3045;43.226;27.858;2024-01-15T01:00:51;146457.88;;;1.58;100.00
6034;BME280;3045;43.226;27.858;2024-01-15T01:03:18;146454.13;;;1.56;100.00
6034;BME280;3045;43.226;27.858;2024-01-15T01:05:45;146376.34;;;1.25;100.00
6034;BME280;3045;43.226;27.858;2024-01-15T01:08:12;146411.47;;;1.39;100.00
6034;BME280;3045;43.226;27.858;2024-01-15T01:10:39;146410.22;;;1.38;100.00
6034;BME280;3045;43.226;27.858;2024-01-15T01:13:09;146360.06;;;1.18;100.00
6034;BME280;3045;43.226;27.858;2024-01-15T01:15:36;146362.53;;;1.19;100.00
6034;BME280;3045;43.226;27.858;2024-01-15T01:18:04;146380.13;;;1.26;100.00
6034;BME280;3045;43.226;27.858;2024-01-15T01:20:31;146363.81;;;1.20;100.00
6034;BME280;3045;43.226;27.858;2024-01-15T01:22:58;146381.38;;;1.27;100.00
6034;BME280;3045;43.226;27.858;2024-01-15T01:25:25;146370.09;;;1.22;100.00
6034;BME280;3045;43.226;27.858;2024-01-15T01:27:52;146368.84;;;1.22;100.00
6034;BME280;3045;43.226;27.858;2024-01-15T01:30:21;146377.59;;;1.25;100.00
6034;BME280;3045;43.226;27.858;2024-01-15T01:32:48;146372.56;;;1.23;100.00
6034;BME280;3045;43.226;27.858;2024-01-15T01:35:15;146357.53;;;1.17;100.00
6034;BME280;3045;43.226;27.858;2024-01-15T01:37:42;146372.56;;;1.23;100.00
6034;BME280;3045;43.226;27.858;2024-01-15T01:40:09;146351.25;;;1.15;100.00
6034;BME280;3045;43.226;27.858;2024-01-15T01:42:37;146360.06;;;1.18;100.00
6034;BME280;3045;43.226;27.858;2024-01-15T01:45:04;146367.56;;;1.21;100.00
6034;BME280;3045;43.226;27.858;2024-01-15T01:47:33;146396.41;;;1.33;100.00
6034;BME280;3045;43.226;27.858;2024-01-15T01:50:01;146363.81;;;1.20;100.00
6034;BME280;3045;43.226;27.858;2024-01-15T01:52:29;146365.06;;;1.20;100.00
6034;BME280;3045;43.226;27.858;2024-01-15T01:54:58;146366.31;;;1.21;100.00
6034;BME280;3045;43.226;27.858;2024-01-15T01:57:26;146356.28;;;1.17;100.00
6034;BME280;3045;43.226;27.858;2024-01-15T01:59:54;146341.22;;;1.11;100.00
6034;BME280;3045;43.226;27.858;2024-01-15T02:02:22;146380.13;;;1.26;100.00
6034;BME280;3045;43.226;27.858;2024-01-15T02:04:51;146336.22;;;1.09;100.00
6034;BME280;3045;43.226;27.858;2024-01-15T02:07:18;146337.50;;;1.09;100.00
6034;BME280;3045;43.226;27.858;2024-01-15T02:09:45;146303.63;;;0.96;100.00
6034;BME280;3045;43.226;27.858;2024-01-15T02:12:12;146306.13;;;0.97;100.00
6034;BME280;3045;43.226;27.858;2024-01-15T02:14:39;146326.19;;;1.05;100.00
6034;BME280;3045;43.226;27.858;2024-01-15T02:17:06;146352.50;;;1.15;100.00
6034;BME280;3045;43.226;27.858;2024-01-15T02:19:33;146363.81;;;1.20;100.00
6034;BME280;3045;43.226;27.858;2024-01-15T02:22:02;146387.63;;;1.29;100.00
6034;BME280;3045;43.226;27.858;2024-01-15T02:24:30;146391.41;;;1.31;100.00
6034;BME280;3045;43.226;27.858;2024-01-15T02:26:58;146415.22;;;1.41;100.00
6034;BME280;3045;43.226;27.858;2024-01-15T02:29:25;146426.50;;;1.45;100.00
6034;BME280;3045;43.226;27.858;2024-01-15T02:31:52;146429.03;;;1.46;100.00
6034;BME280;3045;43.226;27.858;2024-01-15T02:34:20;146356.28;;;1.17;100.00
6034;BME280;3045;43.226;27.858;2024-01-15T02:36:47;146403.91;;;1.36;100.00
6034;BME280;3045;43.226;27.858;2024-01-15T02:39:14;146422.78;;;1.44;100.00
6034;BME280;3045;43.226;27.858;2024-01-15T02:41:42;146426.50;;;1.45;100.00
6034;BME280;3045;43.226;27.858;2024-01-15T02:44:09;146352.50;;;1.15;100.00
6034;BME280;3045;43.226;27.858;2024-01-15T02:46:36;146318.69;;;1.02;100.00
6034;BME280;3045;43.226;27.858;2024-01-15T02:49:03;146276.06;;;0.84;100.00
6034;BME280;3045;43.226;27.858;2024-01-15T02:51:31;146272.28;;;0.83;100.00
6034;BME280;3045;43.226;27.858;2024-01-15T02:53:58;146289.81;;;0.90;100.00
6034;BME280;3045;43.226;27.858;2024-01-15T02:56:25;146259.75;;;0.78;100.00
6034;BME280;3045;43.226;27.858;2024-01-15T02:58:53;146302.38;;;0.95;100.00
6034;BME280;3045;43.226;27.858;2024-01-15T03:01:20;146301.09;;;0.95;100.00
6034;BME280;3045;43.226;27.858;2024-01-15T03:03:47;146289.81;;;0.90;100.00
6034;BME280;3045;43.226;27.858;2024-01-15T03:06:14;146202.09;;;0.55;100.00
6034;BME280;3045;43.226;27.858;2024-01-15T03:08:41;146213.38;;;0.59;100.00
6034;BME280;3045;43.226;27.858;2024-01-15T03:11:08;146175.75;;;0.44;100.00
6034;BME280;3045;43.226;27.858;2024-01-15T03:13:36;146168.25;;;0.41;100.00
6034;BME280;3045;43.226;27.858;2024-01-15T03:16:05;146164.47;;;0.39;100.00
6034;BME280;3045;43.226;27.858;2024-01-15T03:18:33;146161.97;;;0.38;100.00
6034;BME280;3045;43.226;27.858;2024-01-15T03:21:00;146174.50;;;0.43;100.00
6034;BME280;3045;43.226;27.858;2024-01-15T03:23:27;146187.06;;;0.49;100.00
6034;BME280;3045;43.226;27.858;2024-01-15T03:25:55;146189.56;;;0.50;100.00
6034;BME280;3045;43.226;27.858;2024-01-15T03:28:22;146169.53;;;0.41;100.00
6034;BME280;3045;43.226;27.858;2024-01-15T03:30:49;146207.09;;;0.57;100.00
6034;BME280;3045;43.226;27.858;2024-01-15T03:33:17;146227.13;;;0.65;100.00
6034;BME280;3045;43.226;27.858;2024-01-15T03:35:44;146224.63;;;0.64;100.00
6034;BME280;3045;43.226;27.858;2024-01-15T03:38:11;146139.44;;;0.29;100.00
6034;BME280;3045;43.226;27.858;2024-01-15T03:40:38;146179.53;;;0.45;100.00
6034;BME280;3045;43.226;27.858;2024-01-15T03:43:06;146150.72;;;0.34;100.00
6034;BME280;3045;43.226;27.858;2024-01-15T03:45:33;146163.22;;;0.39;100.00
6034;BME280;3045;43.226;27.858;2024-01-15T03:48:00;146141.91;;;0.30;100.00
6034;BME280;3045;43.226;27.858;2024-01-15T03:50:28;146129.44;;;0.25;100.00
6034;BME280;3045;43.226;27.858;2024-01-15T03:52:55;146050.47;;;-0.07;100.00
6034;BME280;3045;43.226;27.858;2024-01-15T03:55:22;146040.47;;;-0.11;100.00
6034;BME280;3045;43.226;27.858;2024-01-15T03:57:49;145954.03;;;-0.46;100.00
6034;BME280;3045;43.226;27.858;2024-01-15T04:00:16;145980.38;;;-0.35;100.00
6034;BME280;3045;43.226;27.858;2024-01-15T04:02:44;145954.03;;;-0.46;100.00
6034;BME280;3045;43.226;27.858;2024-01-15T04:05:11;145981.63;;;-0.34;100.00
6034;BME280;3045;43.226;27.858;2024-01-15T04:07:39;145996.63;;;-0.28;100.00
6034;BME280;3045;43.226;27.858;2024-01-15T04:10:07;145994.09;;;-0.29;100.00
6034;BME280;3045;43.226;27.858;2024-01-15T04:12:34;146006.63;;;-0.24;100.00
6034;BME280;3045;43.226;27.858;2024-01-15T04:15:01;146010.41;;;-0.23;100.00
6034;BME280;3045;43.226;27.858;2024-01-15T04:17:28;145997.88;;;-0.28;100.00
6034;BME280;3045;43.226;27.858;2024-01-15T04:19:55;146005.38;;;-0.25;100.00
6034;BME280;3045;43.226;27.858;2024-01-15T04:22:23;146014.19;;;-0.21;100.00
6034;BME280;3045;43.226;27.858;2024-01-15T04:24:51;146024.19;;;-0.17;100.00
6034;BME280;3045;43.226;27.858;2024-01-15T04:27:18;146054.25;;;-0.05;100.00
6034;BME280;3045;43.226;27.858;2024-01-15T04:29:45;146031.72;;;-0.14;100.00
6034;BME280;3045;43.226;27.858;2024-01-15T04:32:12;145970.34;;;-0.39;100.00
6034;BME280;3045;43.226;27.858;2024-01-15T04:34:39;145982.81;;;-0.34;100.00
6034;BME280;3045;43.226;27.858;2024-01-15T04:37:06;146004.13;;;-0.25;100.00
6034;BME280;3045;43.226;27.858;2024-01-15T04:39:33;145947.78;;;-0.48;100.00
6034;BME280;3045;43.226;27.858;2024-01-15T04:42:02;145984.09;;;-0.33;100.00
6034;BME280;3045;43.226;27.858;2024-01-15T04:44:29;145979.09;;;-0.35;100.00
6034;BME280;3045;43.226;27.858;2024-01-15T04:46:56;145974.06;;;-0.37;100.00
6034;BME280;3045;43.226;27.858;2024-01-15T04:49:23;145979.09;;;-0.35;100.00
6034;BME280;3045;43.226;27.858;2024-01-15T04:51:51;146006.63;;;-0.24;100.00
6034;BME280;3045;43.226;27.858;2024-01-15T04:54:18;145965.31;;;-0.41;100.00
6034;BME280;3045;43.226;27.858;2024-01-15T04:56:46;146015.41;;;-0.21;100.00
6034;BME280;3045;43.226;27.858;2024-01-15T04:59:14;146022.94;;;-0.18;100.00
6034;BME280;3045;43.226;27.858;2024-01-15T05:01:41;146022.94;;;-0.18;100.00
6034;BME280;3045;43.226;27.858;2024-01-15T05:04:09;145906.47;;;-0.65;100.00
6034;BME280;3045;43.226;27.858;2024-01-15T05:06:36;145990.38;;;-0.31;100.00
6034;BME280;3045;43.226;27.858;2024-01-15T05:09:03;145996.63;;;-0.28;100.00
6034;BME280;3045;43.226;27.858;2024-01-15T05:11:30;146009.16;;;-0.23;100.00
6034;BME280;3045;43.226;27.858;2024-01-15T05:13:57;146037.94;;;-0.12;100.00
6034;BME280;3045;43.226;27.858;2024-01-15T05:16:25;146057.97;;;-0.04;100.00
6034;BME280;3045;43.226;27.858;2024-01-15T05:18:52;146084.31;;;0.07;100.00
6034;BME280;3045;43.226;27.858;2024-01-15T05:21:19;146091.81;;;0.10;100.00
6034;BME280;3045;43.226;27.858;2024-01-15T05:23:47;146090.56;;;0.10;100.00
6034;BME280;3045;43.226;27.858;2024-01-15T05:26:14;146109.34;;;0.17;100.00
6034;BME280;3045;43.226;27.858;2024-01-15T05:28:41;146085.56;;;0.08;100.00
6034;BME280;3045;43.226;27.858;2024-01-15T05:31:08;146134.41;;;0.27;100.00
6034;BME280;3045;43.226;27.858;2024-01-15T05:33:38;146154.47;;;0.35;100.00
6034;BME280;3045;43.226;27.858;2024-01-15T05:36:06;146164.47;;;0.39;100.00
6034;BME280;3045;43.226;27.858;2024-01-15T05:38:33;146169.53;;;0.41;100.00
6034;BME280;3045;43.226;27.858;2024-01-15T05:41:00;146179.53;;;0.45;100.00
6034;BME280;3045;43.226;27.858;2024-01-15T05:43:27;146185.78;;;0.48;100.00
6034;BME280;3045;43.226;27.858;2024-01-15T05:45:53;146189.56;;;0.50;100.00
6034;BME280;3045;43.226;27.858;2024-01-15T05:48:20;146203.38;;;0.55;100.00
6034;BME280;3045;43.226;27.858;2024-01-15T05:50:49;146222.16;;;0.63;100.00
6034;BME280;3045;43.226;27.858;2024-01-15T05:53:16;146235.91;;;0.68;100.00
6034;BME280;3045;43.226;27.858;2024-01-15T05:55:43;146247.19;;;0.73;100.00
6034;BME280;3045;43.226;27.858;2024-01-15T05:58:10;146237.16;;;0.69;100.00
6034;BME280;3045;43.226;27.858;2024-01-15T06:00:37;146169.53;;;0.41;100.00
6034;BME280;3045;43.226;27.858;2024-01-15T06:03:04;146061.75;;;-0.02;100.00
6034;BME280;3045;43.226;27.858;2024-01-15T06:05:31;146146.97;;;0.32;100.00
6034;BME280;3045;43.226;27.858;2024-01-15T06:08:00;146184.53;;;0.47;100.00
6034;BME280;3045;43.226;27.858;2024-01-15T06:10:27;146232.19;;;0.67;100.00
6034;BME280;3045;43.226;27.858;2024-01-15T06:12:54;146334.97;;;1.08;100.00
6034;BME280;3045;43.226;27.858;2024-01-15T06:15:21;146407.69;;;1.37;100.00
6034;BME280;3045;43.226;27.858;2024-01-15T06:17:48;146477.94;;;1.66;100.00
6034;BME280;3045;43.226;27.858;2024-01-15T06:20:16;146523.09;;;1.84;100.00
6034;BME280;3045;43.226;27.858;2024-01-15T06:22:43;146600.94;;;2.15;100.00
6034;BME280;3045;43.226;27.858;2024-01-15T06:25:11;146608.44;;;2.18;100.00
6034;BME280;3045;43.226;27.858;2024-01-15T06:27:38;146736.50;;;2.70;100.00
6034;BME280;3045;43.226;27.858;2024-01-15T06:30:06;146847.00;;;3.14;100.00
6034;BME280;3045;43.226;27.858;2024-01-15T06:32:34;146950.06;;;3.56;100.00
6034;BME280;3045;43.226;27.858;2024-01-15T06:35:01;146995.28;;;3.74;100.00
6034;BME280;3045;43.226;27.858;2024-01-15T06:37:28;147046.81;;;3.95;100.00
6034;BME280;3045;43.226;27.858;2024-01-15T06:39:55;146990.28;;;3.72;100.00
6034;BME280;3045;43.226;27.858;2024-01-15T06:42:24;147053.13;;;3.97;100.00
6034;BME280;3045;43.226;27.858;2024-01-15T06:44:52;147097.13;;;4.15;100.00
6034;BME280;3045;43.226;27.858;2024-01-15T06:47:19;147284.50;;;4.90;100.00
6034;BME280;3045;43.226;27.858;2024-01-15T06:49:46;147450.59;;;5.57;100.00
6034;BME280;3045;43.226;27.858;2024-01-15T06:52:13;147562.75;;;6.02;94.33
6034;BME280;3045;43.226;27.858;2024-01-15T06:54:40;147688.69;;;6.53;91.61
6034;BME280;3045;43.226;27.858;2024-01-15T06:57:07;147860.03;;;7.21;87.26
6034;BME280;3045;43.226;27.858;2024-01-15T06:59:35;148059.31;;;8.01;81.34
6034;BME280;3045;43.226;27.858;2024-01-15T07:02:02;148185.53;;;8.52;75.75
6034;BME280;3045;43.226;27.858;2024-01-15T07:04:29;148300.38;;;8.98;72.30
6034;BME280;3045;43.226;27.858;2024-01-15T07:06:57;148426.63;;;9.48;69.78
6034;BME280;3045;43.226;27.858;2024-01-15T07:09:24;148377.41;;;9.29;67.35
6034;BME280;3045;43.226;27.858;2024-01-15T07:11:51;148372.31;;;9.27;67.94
6034;BME280;3045;43.226;27.858;2024-01-15T07:14:18;148483.50;;;9.71;67.49
6034;BME280;3045;43.226;27.858;2024-01-15T07:16:46;148463.28;;;9.63;67.22
6034;BME280;3045;43.226;27.858;2024-01-15T07:19:13;148598.50;;;10.17;66.91
6034;BME280;3045;43.226;27.858;2024-01-15T07:21:40;148789.38;;;10.93;65.97
6034;BME280;3045;43.226;27.858;2024-01-15T07:24:08;148980.34;;;11.70;63.30
6034;BME280;3045;43.226;27.858;2024-01-15T07:26:36;149022.16;;;11.86;61.13
6034;BME280;3045;43.226;27.858;2024-01-15T07:29:03;148963.88;;;11.63;61.18
6034;BME280;3045;43.226;27.858;2024-01-15T07:31:30;149066.44;;;12.04;60.85
6034;BME280;3045;43.226;27.858;2024-01-15T07:33:59;149213.25;;;12.63;57.92
6034;BME280;3045;43.226;27.858;2024-01-15T07:36:26;149352.63;;;13.18;56.64
6034;BME280;3045;43.226;27.858;2024-01-15T07:38:53;149427.38;;;13.48;55.02
6034;BME280;3045;43.226;27.858;2024-01-15T07:41:20;149389.34;;;13.33;55.17
6034;BME280;3045;43.226;27.858;2024-01-15T07:43:48;149198.06;;;12.57;55.74
6034;BME280;3045;43.226;27.858;2024-01-15T07:46:16;149131.00;;;12.30;57.15
6034;BME280;3045;43.226;27.858;2024-01-15T07:48:43;148890.50;;;11.34;58.71
6034;BME280;3045;43.226;27.858;2024-01-15T07:51:11;148900.63;;;11.38;59.18
6034;BME280;3045;43.226;27.858;2024-01-15T07:53:38;148960.09;;;11.62;58.76
6034;BME280;3045;43.226;27.858;2024-01-15T07:56:05;149013.28;;;11.83;57.61
6034;BME280;3045;43.226;27.858;2024-01-15T07:58:32;149076.56;;;12.08;57.21
6034;BME280;3045;43.226;27.858;2024-01-15T08:00:59;148919.63;;;11.45;57.37
6034;BME280;3045;43.226;27.858;2024-01-15T08:03:26;148833.63;;;11.11;59.49
6034;BME280;3045;43.226;27.858;2024-01-15T08:05:53;148813.41;;;11.03;60.00
6034;BME280;3045;43.226;27.858;2024-01-15T08:08:24;148896.84;;;11.36;59.46
6034;BME280;3045;43.226;27.858;2024-01-15T08:10:52;148851.31;;;11.18;61.89
6034;BME280;3045;43.226;27.858;2024-01-15T08:13:19;148891.78;;;11.34;61.95
6034;BME280;3045;43.226;27.858;2024-01-15T08:15:46;148876.63;;;11.28;64.38
6034;BME280;3045;43.226;27.858;2024-01-15T08:18:13;148995.56;;;11.76;63.48
6034;BME280;3045;43.226;27.858;2024-01-15T08:20:40;149068.94;;;12.05;63.18
6034;BME280;3045;43.226;27.858;2024-01-15T08:23:08;149220.84;;;12.66;61.72
6034;BME280;3045;43.226;27.858;2024-01-15T08:25:36;149499.56;;;13.77;58.64
6034;BME280;3045;43.226;27.858;2024-01-15T08:28:04;149770.91;;;14.85;55.17
6034;BME280;3045;43.226;27.858;2024-01-15T08:30:31;149990.47;;;15.73;51.65
6034;BME280;3045;43.226;27.858;2024-01-15T08:32:58;150269.84;;;16.84;49.45
6034;BME280;3045;43.226;27.858;2024-01-15T08:35:25;150562.13;;;18.00;45.81
6034;BME280;3045;43.226;27.858;2024-01-15T08:37:52;150722.38;;;18.64;42.21
6034;BME280;3045;43.226;27.858;2024-01-15T08:40:20;151041.81;;;19.91;41.63
6034;BME280;3045;43.226;27.858;2024-01-15T08:42:48;150784.72;;;18.89;40.78
6034;BME280;3045;43.226;27.858;2024-01-15T08:45:15;150700.75;;;18.55;41.72
6034;BME280;3045;43.226;27.858;2024-01-15T08:47:42;150564.69;;;18.01;42.06
6034;BME280;3045;43.226;27.858;2024-01-15T08:50:10;150408.31;;;17.39;43.51
6034;BME280;3045;43.226;27.858;2024-01-15T08:52:37;150372.72;;;17.25;44.00
6034;BME280;3045;43.226;27.858;2024-01-15T08:55:04;150525.28;;;17.86;43.67
6034;BME280;3045;43.226;27.858;2024-01-15T08:57:32;150516.41;;;17.82;43.17
6034;BME280;3045;43.226;27.858;2024-01-15T09:00:01;150681.66;;;18.48;42.51
6034;BME280;3045;43.226;27.858;2024-01-15T09:02:29;150714.78;;;18.61;41.77
6034;BME280;3045;43.226;27.858;2024-01-15T09:05:03;150705.88;;;18.57;40.66
6034;BME280;3045;43.226;27.858;2024-01-15T09:07:32;150619.34;;;18.23;40.95
6034;BME280;3045;43.226;27.858;2024-01-15T09:09:59;150690.53;;;18.51;40.81
6034;BME280;3045;43.226;27.858;2024-01-15T09:12:27;150663.88;;;18.41;39.94
6034;BME280;3045;43.226;27.858;2024-01-15T09:14:55;150844.53;;;19.12;39.38
6034;BME280;3045;43.226;27.858;2024-01-15T09:17:23;151255.78;;;20.76;38.00
6034;BME280;3045;43.226;27.858;2024-01-15T09:19:50;151709.66;;;22.56;35.28
6034;BME280;3045;43.226;27.858;2024-01-15T09:22:17;152105.31;;;24.12;32.04
6034;BME280;3045;43.226;27.858;2024-01-15T09:24:45;152402.97;;;25.30;30.70
6034;BME280;3045;43.226;27.858;2024-01-15T09:27:12;152589.63;;;26.04;29.16
6034;BME280;3045;43.226;27.858;2024-01-15T09:29:39;152652.31;;;26.29;27.64
6034;BME280;3045;43.226;27.858;2024-01-15T09:32:07;152723.91;;;26.57;27.92
6034;BME280;3045;43.226;27.858;2024-01-15T09:34:36;152793.03;;;26.85;27.12
6034;BME280;3045;43.226;27.858;2024-01-15T09:37:03;152592.19;;;26.05;27.28
6034;BME280;3045;43.226;27.858;2024-01-15T09:39:30;152608.78;;;26.12;27.30
6034;BME280;3045;43.226;27.858;2024-01-15T09:41:58;152385.09;;;25.23;27.53
6034;BME280;3045;43.226;27.858;2024-01-15T09:44:25;152304.59;;;24.91;28.37
6034;BME280;3045;43.226;27.858;2024-01-15T09:46:55;152427.25;;;25.40;27.71
6034;BME280;3045;43.226;27.858;2024-01-15T09:49:22;152222.81;;;24.59;27.44
6034;BME280;3045;43.226;27.858;2024-01-15T09:51:51;152349.31;;;25.09;27.11
6034;BME280;3045;43.226;27.858;2024-01-15T09:54:18;152266.25;;;24.76;27.57
6034;BME280;3045;43.226;27.858;2024-01-15T09:56:47;151933.00;;;23.44;28.30
6034;BME280;3045;43.226;27.858;2024-01-15T09:59:15;151911.25;;;23.36;28.76
6034;BME280;3045;43.226;27.858;2024-01-15T10:01:43;151779.81;;;22.84;29.73
6034;BME280;3045;43.226;27.858;2024-01-15T10:04:10;151778.53;;;22.83;29.44
6034;BME280;3045;43.226;27.858;2024-01-15T10:06:40;151758.13;;;22.75;30.02
6034;BME280;3045;43.226;27.858;2024-01-15T10:09:13;151699.44;;;22.52;30.22
6034;BME280;3045;43.226;27.858;2024-01-15T10:11:41;151658.66;;;22.36;30.50
6034;BME280;3045;43.226;27.858;2024-01-15T10:14:09;151784.94;;;22.86;30.57
6034;BME280;3045;43.226;27.858;2024-01-15T10:16:38;151477.56;;;21.64;31.68
6034;BME280;3045;43.226;27.858;2024-01-15T10:19:05;151415.09;;;21.39;31.44
6034;BME280;3045;43.226;27.858;2024-01-15T10:21:32;151426.56;;;21.43;31.63
6034;BME280;3045;43.226;27.858;2024-01-15T10:24:00;151264.69;;;20.79;32.45
6034;BME280;3045;43.226;27.858;2024-01-15T10:26:29;151202.28;;;20.55;33.07
6034;BME280;3045;43.226;27.858;2024-01-15T10:28:58;150971.81;;;19.63;34.32
6034;BME280;3045;43.226;27.858;2024-01-15T10:31:26;151110.59;;;20.18;33.67
6034;BME280;3045;43.226;27.858;2024-01-15T10:33:53;151281.28;;;20.86;33.06
6034;BME280;3045;43.226;27.858;2024-01-15T10:36:20;151095.28;;;20.12;33.83
6034;BME280;3045;43.226;27.858;2024-01-15T10:38:48;150873.78;;;19.24;35.05
6034;BME280;3045;43.226;27.858;2024-01-15T10:41:15;150535.47;;;17.90;36.41
6034;BME280;3045;43.226;27.858;2024-01-15T10:43:44;150326.97;;;17.07;37.98
6034;BME280;3045;43.226;27.858;2024-01-15T10:46:11;150288.88;;;16.92;38.73
6034;BME280;3045;43.226;27.858;2024-01-15T10:48:39;150184.72;;;16.50;39.54
6034;BME280;3045;43.226;27.858;2024-01-15T10:51:08;150314.25;;;17.02;39.46
6034;BME280;3045;43.226;27.858;2024-01-15T10:53:39;150262.19;;;16.81;39.83
6034;BME280;3045;43.226;27.858;2024-01-15T10:56:08;150192.31;;;16.53;40.08
6034;BME280;3045;43.226;27.858;2024-01-15T10:58:37;150234.25;;;16.70;40.45
6034;BME280;3045;43.226;27.858;2024-01-15T11:01:08;150342.25;;;17.13;39.32
6034;BME280;3045;43.226;27.858;2024-01-15T11:03:35;150183.44;;;16.50;40.62
6034;BME280;3045;43.226;27.858;2024-01-15T11:06:03;150372.72;;;17.25;40.04
6034;BME280;3045;43.226;27.858;2024-01-15T11:08:33;150291.44;;;16.93;40.83
6034;BME280;3045;43.226;27.858;2024-01-15T11:11:02;150340.97;;;17.12;40.67
6034;BME280;3045;43.226;27.858;2024-01-15T11:13:41;150032.34;;;15.89;42.88
6034;BME280;3045;43.226;27.858;2024-01-15T11:16:12;149808.97;;;15.00;45.18
6034;BME280;3045;43.226;27.858;2024-01-15T11:18:40;149717.63;;;14.64;45.99
6034;BME280;3045;43.226;27.858;2024-01-15T11:21:21;149621.28;;;14.26;47.94
6034;BME280;3045;43.226;27.858;2024-01-15T11:23:51;149636.47;;;14.32;49.18
6034;BME280;3045;43.226;27.858;2024-01-15T11:26:32;149654.25;;;14.39;49.86
6034;BME280;3045;43.226;27.858;2024-01-15T11:29:00;149632.63;;;14.30;50.86
6034;BME280;3045;43.226;27.858;2024-01-15T11:34:56;149355.16;;;13.19;55.37
6034;BME280;3045;43.226;27.858;2024-01-15T11:37:28;149310.78;;;13.02;56.57
6034;BME280;3045;43.226;27.858;2024-01-15T11:39:59;149258.88;;;12.81;58.68
6034;BME280;3045;43.226;27.858;2024-01-15T11:42:29;149246.19;;;12.76;60.35
6034;BME280;3045;43.226;27.858;2024-01-15T11:44:57;149172.75;;;12.47;62.05
6034;BME280;3045;43.226;27.858;2024-01-15T11:47:59;149098.09;;;12.17;65.08
6034;BME280;3045;43.226;27.858;2024-01-15T11:50:33;149090.44;;;12.14;66.44
6034;BME280;3045;43.226;27.858;2024-01-15T11:53:02;149018.34;;;11.85;65.77
6034;BME280;3045;43.226;27.858;2024-01-15T11:55:34;149093.00;;;12.15;66.40
6034;BME280;3045;43.226;27.858;2024-01-15T11:58:02;149085.41;;;12.12;66.27
6034;BME280;3045;43.226;27.858;2024-01-15T12:00:30;149070.22;;;12.06;67.47
6034;BME280;3045;43.226;27.858;2024-01-15T12:02:58;149019.59;;;11.85;67.68
6034;BME280;3045;43.226;27.858;2024-01-15T12:05:28;149013.28;;;11.83;68.96
6034;BME280;3045;43.226;27.858;2024-01-15T12:07:56;148941.16;;;11.54;70.39
6034;BME280;3045;43.226;27.858;2024-01-15T12:10:23;148928.47;;;11.49;71.84
6034;BME280;3045;43.226;27.858;2024-01-15T12:12:57;148893.06;;;11.35;73.87
6034;BME280;3045;43.226;27.858;2024-01-15T12:15:26;148807.06;;;11.00;76.89
6034;BME280;3045;43.226;27.858;2024-01-15T12:17:55;148820.97;;;11.06;78.36
6034;BME280;3045;43.226;27.858;2024-01-15T12:20:25;148812.13;;;11.03;80.68
6034;BME280;3045;43.226;27.858;2024-01-15T12:22:52;148785.56;;;10.92;81.15
6034;BME280;3045;43.226;27.858;2024-01-15T12:25:20;148789.38;;;10.93;83.56
6034;BME280;3045;43.226;27.858;2024-01-15T12:27:48;148800.75;;;10.98;84.35
6034;BME280;3045;43.226;27.858;2024-01-15T12:30:15;148828.56;;;11.09;84.75
6034;BME280;3045;43.226;27.858;2024-01-15T12:32:42;148785.56;;;10.92;85.49
6034;BME280;3045;43.226;27.858;2024-01-15T12:35:19;148826.00;;;11.08;84.91
6034;BME280;3045;43.226;27.858;2024-01-15T12:37:48;148818.44;;;11.05;85.03
6034;BME280;3045;43.226;27.858;2024-01-15T12:40:19;148791.91;;;10.94;86.73
6034;BME280;3045;43.226;27.858;2024-01-15T12:42:46;148766.59;;;10.84;88.44
6034;BME280;3045;43.226;27.858;2024-01-15T12:45:13;148666.72;;;10.44;87.71
6034;BME280;3045;43.226;27.858;2024-01-15T12:47:41;148704.66;;;10.60;88.96
6034;BME280;3045;43.226;27.858;2024-01-15T12:50:09;148656.59;;;10.40;89.06
6034;BME280;3045;43.226;27.858;2024-01-15T12:52:36;148674.34;;;10.47;89.77
6034;BME280;3045;43.226;27.858;2024-01-15T12:55:07;148646.50;;;10.36;91.22
6034;BME280;3045;43.226;27.858;2024-01-15T12:57:35;148638.94;;;10.33;93.63
6034;BME280;3045;43.226;27.858;2024-01-15T13:00:02;148628.81;;;10.29;93.72
6034;BME280;3045;43.226;27.858;2024-01-15T13:02:32;148660.41;;;10.42;94.50
6034;BME280;3045;43.226;27.858;2024-01-15T13:05:00;148651.56;;;10.38;96.16
6034;BME280;3045;43.226;27.858;2024-01-15T13:07:29;148681.91;;;10.50;97.20